createdAt,value
2022-10-17T00:00:40.762Z,100489.63
2022-10-17T00:03:08.127Z,100489.41
2022-10-17T00:05:34.973Z,100492.06
2022-10-17T00:08:01.819Z,100498.84
2022-10-17T00:10:28.603Z,100503.97
2022-10-17T00:12:55.421Z,100509.06
2022-10-17T00:15:22.455Z,100506.41
2022-10-17T00:17:49.398Z,100490.41
2022-10-17T00:20:16.965Z,100488.19
2022-10-17T00:22:43.839Z,100474.88
2022-10-17T00:25:11.607Z,100491.88
2022-10-17T00:27:40.882Z,100492.06
2022-10-17T00:30:11.613Z,100494.72
2022-10-17T00:32:38.451Z,100497.38
2022-10-17T00:35:05.794Z,100499.22
2022-10-17T00:37:33.055Z,100499.03
2022-10-17T00:40:00.013Z,100511.53
2022-10-17T00:42:28.390Z,100525.66
2022-10-17T00:45:18.383Z,100549.81
2022-10-17T00:47:51.809Z,100546.56
2022-10-17T00:50:20.178Z,100546.56
2022-10-17T00:52:48.272Z,100553.94
2022-10-17T00:55:20.948Z,100545.13
2022-10-17T00:57:48.593Z,100554.75
2022-10-17T01:00:17.763Z,100554.94
2022-10-17T01:02:45.385Z,100554.94
2022-10-17T01:05:12.857Z,100547.19
2022-10-17T01:07:42.453Z,100556.19
2022-10-17T01:10:10.536Z,100556.19
2022-10-17T01:12:52.410Z,100563.34
2022-10-17T01:15:40.189Z,100568.06
2022-10-17T01:18:34.086Z,100587.13
2022-10-17T01:21:45.576Z,100590.41
2022-10-17T01:24:25.746Z,100581.97
2022-10-17T01:27:14.600Z,100579.53
2022-10-17T01:29:48.118Z,100578.72
2022-10-17T01:32:54.672Z,100586.09
2022-10-17T01:35:32.963Z,100577.50
2022-10-17T01:38:09.686Z,100580.78
2022-10-17T01:40:55.695Z,100588.53
2022-10-17T01:43:40.113Z,100586.91
2022-10-17T01:46:13.090Z,100595.69
2022-10-17T01:48:43.411Z,100600.44
2022-10-17T01:51:18.854Z,100606.56
2022-10-17T01:54:14.992Z,100596.53
2022-10-17T01:56:44.276Z,100597.34
2022-10-17T01:59:31.423Z,100592.22
2022-10-17T02:01:59.732Z,100613.72
2022-10-17T02:04:26.729Z,100632.56
2022-10-17T02:06:53.631Z,100633.75
2022-10-17T02:09:24.470Z,100638.69
2022-10-17T02:12:09.819Z,100630.72
2022-10-17T02:14:45.626Z,100629.69
2022-10-17T02:17:41.584Z,100628.06
2022-10-17T02:20:42.306Z,100631.09
2022-10-17T02:25:57.839Z,100646.03
2022-10-17T02:28:30.678Z,100649.50
2022-10-17T02:31:23.686Z,100656.88
2022-10-17T02:33:58.887Z,100668.75
2022-10-17T02:36:39.110Z,100673.25
2022-10-17T02:39:08.638Z,100663.63
2022-10-17T02:41:38.204Z,100665.25
2022-10-17T02:44:06.437Z,100674.25
2022-10-17T02:46:35.596Z,100662.00
2022-10-17T02:49:15.677Z,100663.84
2022-10-17T02:51:53.151Z,100646.22
2022-10-17T02:54:32.001Z,100632.94
2022-10-17T02:57:04.291Z,100611.63
2022-10-17T03:02:22.029Z,100624.31
2022-10-17T03:04:48.878Z,100627.81
2022-10-17T03:07:15.707Z,100628.63
2022-10-17T03:09:42.482Z,100631.28
2022-10-17T03:12:09.408Z,100625.97
2022-10-17T03:14:36.166Z,100647.06
2022-10-17T03:17:02.944Z,100637.41
2022-10-17T03:19:29.775Z,100647.25
2022-10-17T03:21:56.728Z,100643.97
2022-10-17T03:24:23.771Z,100645.59
2022-10-17T03:26:50.582Z,100642.34
2022-10-17T03:29:17.374Z,100627.19
2022-10-17T03:31:44.243Z,100623.09
2022-10-17T03:34:11.089Z,100633.13
2022-10-17T03:36:38.066Z,100637.81
2022-10-17T03:39:04.890Z,100642.31
2022-10-17T03:41:31.678Z,100646.81
2022-10-17T03:43:58.535Z,100654.59
2022-10-17T03:46:25.254Z,100660.94
2022-10-17T03:48:52.308Z,100649.47
2022-10-17T03:51:19.193Z,100667.28
2022-10-17T03:53:45.999Z,100666.44
2022-10-17T03:56:24.113Z,100664.63
2022-10-17T03:58:50.958Z,100674.06
2022-10-17T04:01:19.330Z,100654.59
2022-10-17T04:03:53.230Z,100664.41
2022-10-17T04:06:21.372Z,100668.91
2022-10-17T04:08:48.684Z,100667.28
2022-10-17T04:11:18.562Z,100653.97
2022-10-17T04:13:46.228Z,100659.09
2022-10-17T04:16:15.627Z,100649.47
2022-10-17T04:18:43.045Z,100660.94
2022-10-17T04:21:10.286Z,100662.78
2022-10-17T04:23:37.390Z,100678.75
2022-10-17T04:26:05.267Z,100672.59
2022-10-17T04:28:33.359Z,100671.38
2022-10-17T04:31:02.781Z,100674.66
2022-10-17T04:33:29.663Z,100682.44
2022-10-17T04:36:00.852Z,100683.44
2022-10-17T04:38:29.165Z,100683.44
2022-10-17T04:41:04.651Z,100670.16
2022-10-17T04:43:36.785Z,100672.00
2022-10-17T04:46:06.053Z,100686.94
2022-10-17T04:48:33.250Z,100699.22
2022-10-17T04:51:03.311Z,100707.19
2022-10-17T04:53:36.349Z,100704.97
2022-10-17T04:56:12.264Z,100726.25
2022-10-17T04:58:40.307Z,100721.13
2022-10-17T05:01:09.098Z,100720.28
2022-10-17T05:03:36.687Z,100712.31
2022-10-17T05:06:07.612Z,100722.94
2022-10-17T05:08:34.995Z,100726.63
2022-10-17T05:11:02.371Z,100743.81
2022-10-17T05:13:31.464Z,100756.47
2022-10-17T05:16:02.030Z,100760.78
2022-10-17T05:18:29.258Z,100765.91
2022-10-17T05:20:56.132Z,100774.31
2022-10-17T05:23:30.720Z,100782.91
2022-10-17T05:25:57.567Z,100784.13
2022-10-17T05:28:24.432Z,100784.13
2022-10-17T05:30:51.278Z,100796.63
2022-10-17T05:33:27.451Z,100786.78
2022-10-17T05:35:54.211Z,100788.44
2022-10-17T05:38:21.040Z,100789.25
2022-10-17T05:40:47.855Z,100788.44
2022-10-17T05:43:15.067Z,100790.47
2022-10-17T05:45:41.849Z,100790.47
2022-10-17T05:48:09.263Z,100797.63
2022-10-17T05:50:36.439Z,100807.44
2022-10-17T05:53:03.467Z,100805.41
2022-10-17T05:55:30.325Z,100809.50
2022-10-17T05:57:58.675Z,100803.59
2022-10-17T06:00:25.490Z,100826.88
2022-10-17T06:02:52.317Z,100824.63
2022-10-17T06:05:19.240Z,100822.78
2022-10-17T06:07:46.151Z,100821.16
2022-10-17T06:10:15.242Z,100837.94
2022-10-17T06:12:42.964Z,100855.91
2022-10-17T06:15:10.132Z,100869.22
2022-10-17T06:17:37.833Z,100868.59
2022-10-17T06:20:05.314Z,100873.09
2022-10-17T06:22:32.426Z,100870.81
2022-10-17T06:24:59.308Z,100867.34
2022-10-17T06:27:26.145Z,100869.38
2022-10-17T06:29:52.910Z,100881.22
2022-10-17T06:32:19.766Z,100881.22
2022-10-17T06:34:46.731Z,100886.34
2022-10-17T06:37:13.499Z,100885.53
2022-10-17T06:39:40.286Z,100878.56
2022-10-17T06:42:07.039Z,100880.22
2022-10-17T06:44:33.833Z,100883.50
2022-10-17T06:47:01.315Z,100899.25
2022-10-17T06:49:29.651Z,100913.78
2022-10-17T06:51:56.430Z,100918.28
2022-10-17T06:54:23.210Z,100925.41
2022-10-17T06:56:50.015Z,100936.88
2022-10-17T06:59:17.032Z,100927.06
2022-10-17T07:01:46.264Z,100929.91
2022-10-17T07:04:14.464Z,100947.53
2022-10-17T07:06:41.730Z,100943.84
2022-10-17T07:09:08.818Z,100963.47
2022-10-17T07:11:35.826Z,100967.97
2022-10-17T07:14:04.041Z,100966.16
2022-10-17T07:16:30.800Z,100967.41
2022-10-17T07:18:57.628Z,100962.72
2022-10-17T07:21:24.544Z,100968.03
2022-10-17T07:23:51.531Z,100986.84
2022-10-17T07:26:19.039Z,100997.47
2022-10-17T07:28:47.979Z,100995.22
2022-10-17T07:31:19.772Z,101010.97
2022-10-17T07:36:33.975Z,101030.22
2022-10-17T07:39:00.712Z,101036.38
2022-10-17T07:41:28.018Z,101041.06
2022-10-17T07:43:54.878Z,101048.19
2022-10-17T07:46:21.710Z,101052.50
2022-10-17T07:48:48.515Z,101061.13
2022-10-17T07:51:15.341Z,101065.63
2022-10-17T07:53:46.374Z,101062.78
2022-10-17T07:56:15.971Z,101074.03
2022-10-17T07:58:42.998Z,101065.88
2022-10-17T08:01:16.115Z,101074.31
2022-10-17T08:03:44.833Z,101072.47
2022-10-17T08:06:12.093Z,101082.53
2022-10-17T08:08:39.115Z,101077.03
2022-10-17T08:11:09.041Z,101088.94
2022-10-17T08:13:40.430Z,101097.72
2022-10-17T08:16:10.236Z,101091.00
2022-10-17T08:18:37.655Z,101085.94
2022-10-17T08:21:08.811Z,101094.19
2022-10-17T08:23:36.816Z,101101.16
2022-10-17T08:26:06.592Z,101109.97
2022-10-17T08:28:35.916Z,101114.47
2022-10-17T08:31:08.452Z,101123.72
2022-10-17T08:33:38.637Z,101133.19
2022-10-17T08:36:06.902Z,101134.19
2022-10-17T08:38:36.329Z,101142.16
2022-10-17T08:41:13.826Z,101137.50
2022-10-17T08:44:02.284Z,101146.50
2022-10-17T08:46:36.026Z,101145.22
2022-10-17T08:49:08.737Z,101155.88
2022-10-17T08:51:53.186Z,101154.41
2022-10-17T08:54:27.219Z,101162.00
2022-10-17T08:56:55.762Z,101179.63
2022-10-17T08:59:30.537Z,101179.63
2022-10-17T09:02:22.336Z,101183.88
2022-10-17T09:05:15.179Z,101186.53
2022-10-17T09:07:52.621Z,101196.16
2022-10-17T09:10:24.339Z,101193.31
2022-10-17T09:12:57.140Z,101200.31
2022-10-17T09:15:49.951Z,101201.56
2022-10-17T09:18:52.150Z,101201.75
2022-10-17T09:21:27.574Z,101200.09
2022-10-17T09:24:08.798Z,101210.56
2022-10-17T09:26:39.168Z,101202.75
2022-10-17T09:29:17.236Z,101219.53
2022-10-17T09:31:59.536Z,101224.88
2022-10-17T09:34:29.344Z,101209.91
2022-10-17T09:37:00.042Z,101223.88
2022-10-17T09:39:32.705Z,101225.34
2022-10-17T09:42:16.825Z,101221.47
2022-10-17T09:45:25.325Z,101238.69
2022-10-17T09:48:25.163Z,101251.81
2022-10-17T09:51:02.599Z,101254.50
2022-10-17T09:53:43.086Z,101252.66
2022-10-17T09:56:18.833Z,101263.13
2022-10-17T09:58:56.168Z,101264.56
2022-10-17T10:01:29.263Z,101267.66
2022-10-17T10:04:17.490Z,101274.81
2022-10-17T10:07:12.540Z,101282.19
2022-10-17T10:09:40.252Z,101291.84
2022-10-17T10:12:18.529Z,101299.44
2022-10-17T10:14:47.357Z,101298.25
2022-10-17T10:17:37.759Z,101309.44
2022-10-17T10:20:27.227Z,101316.25
2022-10-17T10:23:17.576Z,101322.84
2022-10-17T10:25:56.898Z,101326.31
2022-10-17T10:28:28.219Z,101330.25
2022-10-17T10:30:57.312Z,101336.22
2022-10-17T10:33:41.803Z,101333.38
2022-10-17T10:36:09.427Z,101336.06
2022-10-17T10:38:42.628Z,101342.81
2022-10-17T10:41:12.136Z,101352.06
2022-10-17T10:43:48.531Z,101356.22
2022-10-17T10:46:22.450Z,101358.41
2022-10-17T10:49:26.594Z,101355.38
2022-10-17T10:51:53.513Z,101357.06
2022-10-17T10:54:34.069Z,101359.97
2022-10-17T10:57:04.730Z,101356.56
2022-10-17T10:59:50.724Z,101364.16
2022-10-17T11:02:28.105Z,101374.16
2022-10-17T11:05:04.343Z,101390.38
2022-10-17T11:07:36.933Z,101387.22
2022-10-17T11:10:22.572Z,101390.53
2022-10-17T11:13:00.431Z,101396.69
2022-10-17T11:15:47.480Z,101402.66
2022-10-17T11:18:41.113Z,101403.13
2022-10-17T11:21:16.457Z,101407.97
2022-10-17T11:23:53.852Z,101406.34
2022-10-17T11:26:32.909Z,101419.47
2022-10-17T11:29:06.865Z,101421.94
2022-10-17T11:31:42.005Z,101428.28
2022-10-17T11:34:32.599Z,101426.25
2022-10-17T11:37:17.954Z,101441.03
2022-10-17T11:39:56.917Z,101440.22
2022-10-17T11:42:53.163Z,101441.69
2022-10-17T11:45:24.653Z,101442.50
2022-10-17T11:48:02.926Z,101457.03
2022-10-17T11:53:48.067Z,101468.34
2022-10-17T11:56:21.609Z,101461.00
2022-10-17T11:59:01.897Z,101459.78
2022-10-17T12:01:42.373Z,101463.91
2022-10-17T12:04:37.771Z,101463.72
2022-10-17T12:07:46.725Z,101462.31
2022-10-17T12:10:25.184Z,101467.09
2022-10-17T12:12:52.070Z,101463.41
2022-10-17T12:15:24.806Z,101470.22
2022-10-17T12:18:14.137Z,101477.66
2022-10-17T12:20:40.971Z,101475.19
2022-10-17T12:23:13.567Z,101478.50
2022-10-17T12:25:53.143Z,101476.44
2022-10-17T12:28:46.228Z,101475.25
2022-10-17T12:31:33.681Z,101485.66
2022-10-17T12:34:03.823Z,101477.19
2022-10-17T12:36:30.593Z,101475.19
2022-10-17T12:39:03.303Z,101471.13
2022-10-17T12:41:39.337Z,101471.75
2022-10-17T12:44:15.310Z,101467.50
2022-10-17T12:46:52.576Z,101471.63
2022-10-17T12:49:24.084Z,101468.59
2022-10-17T12:52:08.962Z,101475.03
2022-10-17T12:54:47.804Z,101472.13
2022-10-17T12:57:39.083Z,101470.75
2022-10-17T13:00:20.944Z,101469.38
2022-10-17T13:02:50.099Z,101486.22
2022-10-17T13:05:35.264Z,101490.19
2022-10-17T13:08:05.963Z,101489.78
2022-10-17T13:10:40.651Z,101491.81
2022-10-17T13:13:35.542Z,101494.50
2022-10-17T13:16:02.337Z,101504.53
2022-10-17T13:18:30.296Z,101497.56
2022-10-17T13:21:05.090Z,101506.56
2022-10-17T13:23:40.478Z,101508.41
2022-10-17T13:26:07.368Z,101503.47
2022-10-17T13:28:39.232Z,101503.66
2022-10-17T13:31:06.700Z,101507.72
2022-10-17T13:33:39.413Z,101507.28
2022-10-17T13:36:16.038Z,101505.63
2022-10-17T13:38:43.312Z,101505.81
2022-10-17T13:44:04.580Z,101506.06
2022-10-17T13:46:38.853Z,101522.53
2022-10-17T13:49:26.169Z,101535.88
2022-10-17T13:51:56.505Z,101522.53
2022-10-17T13:54:37.044Z,101523.97
2022-10-17T13:57:05.706Z,101527.28
2022-10-17T13:59:41.262Z,101523.22
2022-10-17T14:02:21.406Z,101523.47
2022-10-17T14:05:15.805Z,101529.06
2022-10-17T14:08:09.255Z,101525.81
2022-10-17T14:10:39.031Z,101514.56
2022-10-17T14:13:11.121Z,101518.31
2022-10-17T14:15:37.973Z,101521.16
2022-10-17T14:18:08.121Z,101524.03
2022-10-17T14:23:44.179Z,101533.66
2022-10-17T14:26:12.810Z,101536.56
2022-10-17T14:28:41.267Z,101547.84
2022-10-17T14:31:31.641Z,101547.84
2022-10-17T14:33:59.199Z,101548.06
2022-10-17T14:36:36.127Z,101550.72
2022-10-17T14:39:04.946Z,101545.56
2022-10-17T14:41:44.276Z,101550.91
2022-10-17T14:44:25.565Z,101560.19
2022-10-17T14:47:00.245Z,101560.81
2022-10-17T14:49:36.635Z,101564.31
2022-10-17T14:52:17.630Z,101570.09
2022-10-17T14:54:50.155Z,101564.38
2022-10-17T14:57:24.922Z,101575.25
2022-10-17T14:59:54.221Z,101572.38
2022-10-17T15:02:22.370Z,101581.84
2022-10-17T15:04:49.217Z,101585.97
2022-10-17T15:07:17.682Z,101592.78
2022-10-17T15:09:47.462Z,101601.63
2022-10-17T15:12:17.185Z,101598.72
2022-10-17T15:14:45.242Z,101601.63
2022-10-17T15:17:25.793Z,101605.47
2022-10-17T15:19:52.989Z,101600.53
2022-10-17T15:22:19.835Z,101614.06
2022-10-17T15:25:02.133Z,101615.53
2022-10-17T15:27:31.819Z,101627.22
2022-10-17T15:29:58.680Z,101619.22
2022-10-17T15:32:25.552Z,101626.22
2022-10-17T15:34:52.370Z,101629.50
2022-10-17T15:37:25.380Z,101630.34
2022-10-17T15:39:55.328Z,101631.59
2022-10-17T15:42:31.552Z,101632.59
2022-10-17T15:44:58.851Z,101634.47
2022-10-17T15:47:35.039Z,101640.00
2022-10-17T15:50:02.481Z,101635.84
2022-10-17T15:52:29.320Z,101640.75
2022-10-17T15:54:58.410Z,101645.66
2022-10-17T15:57:31.336Z,101646.00
2022-10-17T16:00:00.393Z,101653.41
2022-10-17T16:02:27.287Z,101642.25
2022-10-17T16:04:54.363Z,101653.97
2022-10-17T16:07:21.950Z,101651.47
2022-10-17T16:09:48.716Z,101657.22
2022-10-17T16:12:24.173Z,101650.84
2022-10-17T16:14:50.979Z,101659.22
2022-10-17T16:17:18.270Z,101662.47
2022-10-17T16:19:45.160Z,101667.34
2022-10-17T16:22:27.912Z,101670.56
2022-10-17T16:24:59.143Z,101666.44
2022-10-17T16:27:26.643Z,101670.28
2022-10-17T16:29:53.411Z,101671.31
2022-10-17T16:32:20.214Z,101675.34
2022-10-17T16:34:47.058Z,101678.78
2022-10-17T16:37:13.876Z,101681.81
2022-10-17T16:39:40.751Z,101683.84
2022-10-17T16:42:07.533Z,101684.88
2022-10-17T16:44:34.315Z,101690.38
2022-10-17T16:47:01.227Z,101688.25
2022-10-17T16:49:27.975Z,101698.47
2022-10-17T16:51:54.814Z,101707.88
2022-10-17T16:54:21.560Z,101719.06
2022-10-17T16:56:49.282Z,101729.53
2022-10-17T16:59:16.267Z,101729.53
2022-10-17T17:01:43.046Z,101721.72
2022-10-17T17:04:09.824Z,101718.78
2022-10-17T17:06:37.522Z,101721.78
2022-10-17T17:09:04.490Z,101731.00
2022-10-17T17:11:32.636Z,101722.16
2022-10-17T17:14:01.892Z,101727.00
2022-10-17T17:16:30.155Z,101737.03
2022-10-17T17:19:08.389Z,101746.41
2022-10-17T17:21:35.409Z,101744.25
2022-10-17T17:24:03.696Z,101752.81
2022-10-17T17:26:39.134Z,101757.69
2022-10-17T17:29:05.937Z,101750.88
2022-10-17T17:31:34.709Z,101750.22
2022-10-17T17:34:03.119Z,101752.06
2022-10-17T17:36:33.915Z,101753.06
2022-10-17T17:39:02.833Z,101746.59
2022-10-17T17:41:30.192Z,101757.28
2022-10-17T17:43:57.556Z,101756.44
2022-10-17T17:46:25.257Z,101769.75
2022-10-17T17:48:53.459Z,101774.44
2022-10-17T17:51:29.418Z,101774.78
2022-10-17T17:53:57.281Z,101779.66
2022-10-17T17:56:29.066Z,101781.50
2022-10-17T17:58:58.632Z,101786.19
2022-10-17T18:01:28.466Z,101790.84
2022-10-17T18:03:56.672Z,101797.00
2022-10-17T18:06:23.583Z,101797.34
2022-10-17T18:08:53.325Z,101797.72
2022-10-17T18:11:22.081Z,101794.38
2022-10-17T18:13:57.975Z,101793.09
2022-10-17T18:16:26.516Z,101797.28
2022-10-17T18:18:53.550Z,101811.78
2022-10-17T18:21:20.317Z,101819.31
2022-10-17T18:23:48.663Z,101822.31
2022-10-17T18:26:16.128Z,101830.16
2022-10-17T18:28:43.911Z,101832.19
2022-10-17T18:31:22.362Z,101836.66
2022-10-17T18:33:51.965Z,101832.19
2022-10-17T18:36:19.571Z,101833.84
2022-10-17T18:38:46.433Z,101832.34
2022-10-17T18:41:16.691Z,101843.16
2022-10-17T18:43:45.401Z,101845.34
2022-10-17T18:46:21.065Z,101852.00
2022-10-17T18:48:49.319Z,101855.66
2022-10-17T18:51:18.998Z,101859.31
2022-10-17T18:53:48.505Z,101850.47
2022-10-17T18:56:15.703Z,101864.63
2022-10-17T18:58:42.833Z,101876.28
2022-10-17T19:01:15.957Z,101879.97
2022-10-17T19:03:44.286Z,101879.28
2022-10-17T19:06:13.029Z,101874.63
2022-10-17T19:08:40.408Z,101875.47
2022-10-17T19:11:09.562Z,101879.13
2022-10-17T19:13:37.111Z,101878.66
2022-10-17T19:16:08.967Z,101879.63
2022-10-17T19:18:36.264Z,101875.31
2022-10-17T19:21:05.023Z,101887.13
2022-10-17T19:23:39.034Z,101886.47
2022-10-17T19:26:07.876Z,101898.94
2022-10-17T19:28:40.068Z,101900.78
2022-10-17T19:31:07.302Z,101897.63
2022-10-17T19:33:34.984Z,101901.66
2022-10-17T19:36:17.155Z,101902.78
2022-10-17T19:38:44.253Z,101899.47
2022-10-17T19:41:13.579Z,101901.47
2022-10-17T19:43:42.510Z,101903.66
2022-10-17T19:46:14.432Z,101907.00
2022-10-17T19:48:41.536Z,101915.63
2022-10-17T19:51:11.321Z,101921.13
2022-10-17T19:53:38.253Z,101916.00
2022-10-17T19:56:05.912Z,101927.09
2022-10-17T19:58:36.395Z,101921.47
2022-10-17T20:01:05.789Z,101921.81
2022-10-17T20:03:36.871Z,101924.63
2022-10-17T20:06:04.908Z,101936.94
2022-10-17T20:08:31.863Z,101934.63
2022-10-17T20:11:10.517Z,101928.47
2022-10-17T20:13:38.402Z,101927.97
2022-10-17T20:16:06.849Z,101929.13
2022-10-17T20:18:34.133Z,101928.28
2022-10-17T20:21:07.566Z,101937.25
2022-10-17T20:23:34.811Z,101943.75
2022-10-17T20:26:25.407Z,101953.56
2022-10-17T20:28:53.452Z,101957.03
2022-10-17T20:31:21.012Z,101965.31
2022-10-17T20:33:47.850Z,101973.50
2022-10-17T20:36:15.217Z,101974.63
2022-10-17T20:38:42.064Z,101977.63
2022-10-17T20:41:10.357Z,101972.13
2022-10-17T20:43:37.885Z,101967.34
2022-10-17T20:46:22.926Z,101975.81
2022-10-17T20:48:53.122Z,101977.28
2022-10-17T20:51:21.360Z,101984.75
2022-10-17T20:53:49.178Z,101984.94
2022-10-17T20:56:24.447Z,101985.75
2022-10-17T20:58:58.607Z,101980.44
2022-10-17T21:01:27.086Z,101978.78
2022-10-17T21:03:54.405Z,101980.59
2022-10-17T21:06:22.252Z,101990.53
2022-10-17T21:08:50.120Z,101997.16
2022-10-17T21:11:23.793Z,101983.69
2022-10-17T21:13:56.359Z,101996.28
2022-10-17T21:16:23.323Z,101992.78
2022-10-17T21:18:50.299Z,102000.88
2022-10-17T21:21:21.225Z,102001.50
2022-10-17T21:23:49.923Z,102010.09
2022-10-17T21:26:18.230Z,102005.97
2022-10-17T21:28:46.388Z,102015.25
2022-10-17T21:31:18.457Z,102016.84
2022-10-17T21:33:48.266Z,102024.81
2022-10-17T21:36:17.010Z,102024.47
2022-10-17T21:38:45.680Z,102023.13
2022-10-17T21:41:14.685Z,102033.38
2022-10-17T21:43:43.158Z,102031.19
2022-10-17T21:46:13.541Z,102037.47
2022-10-17T21:48:40.801Z,102037.81
2022-10-17T21:51:13.473Z,102039.75
2022-10-17T21:53:40.965Z,102044.72
2022-10-17T21:56:11.307Z,102045.53
2022-10-17T21:58:38.662Z,102053.19
2022-10-17T22:01:09.702Z,102050.53
2022-10-17T22:03:42.591Z,102051.22
2022-10-17T22:09:02.553Z,102055.53
2022-10-17T22:11:35.339Z,102058.84
2022-10-17T22:14:03.536Z,102065.00
2022-10-17T22:16:30.338Z,102066.81
2022-10-17T22:19:04.931Z,102074.13
2022-10-17T22:21:34.046Z,102068.13
2022-10-17T22:24:03.291Z,102071.94
2022-10-17T22:26:32.217Z,102066.25
2022-10-17T22:28:59.325Z,102065.06
2022-10-17T22:31:26.727Z,102059.16
2022-10-17T22:33:53.598Z,102060.00
2022-10-17T22:36:20.429Z,102063.50
2022-10-17T22:38:47.294Z,102057.34
2022-10-17T22:41:14.033Z,102062.53
2022-10-17T22:43:40.824Z,102060.84
2022-10-17T22:46:08.302Z,102055.53
2022-10-17T22:48:35.256Z,102053.59
2022-10-17T22:51:02.025Z,102056.91
2022-10-17T22:53:30.187Z,102056.13
2022-10-17T22:56:02.297Z,102058.19
2022-10-17T22:58:30.845Z,102068.44
2022-10-17T23:00:58.271Z,102062.47
2022-10-17T23:03:33.198Z,102064.44
2022-10-17T23:06:00.740Z,102063.59
2022-10-17T23:08:28.558Z,102072.53
2022-10-17T23:10:55.409Z,102073.00
2022-10-17T23:13:25.660Z,102070.78
2022-10-17T23:15:57.507Z,102064.44
2022-10-17T23:18:25.900Z,102067.72
2022-10-17T23:20:53.448Z,102068.97
2022-10-17T23:23:29.067Z,102073.31
2022-10-17T23:25:56.600Z,102074.28
2022-10-17T23:28:23.506Z,102070.00
2022-10-17T23:30:50.263Z,102067.16
2022-10-17T23:33:17.035Z,102068.84
2022-10-17T23:35:43.983Z,102071.63
2022-10-17T23:38:11.596Z,102076.25
2022-10-17T23:40:38.392Z,102074.91
2022-10-17T23:43:05.261Z,102080.22
2022-10-17T23:45:34.787Z,102080.50
2022-10-17T23:48:05.289Z,102081.47
2022-10-17T23:50:32.215Z,102083.59
2022-10-17T23:52:59.280Z,102084.75
2022-10-17T23:55:26.191Z,102086.00
2022-10-17T23:57:53.466Z,102093.44
